Flight Track Log - Related Links

Times and Time Zones

All times are in EDT time to prevent confusion due to time zone crossing. See the N6229Q flight status page for this flight to view local times or setup timezone preferences in your user account.

Time Position Orientation Groundspeed Altitude Reporting Facility
EDT Latitude Longitude Course Direction KTS MPH feet Rate Location/Type
Fri 06:48:22 PM 42.4667 -71.3000 304° West 55 63 900  Level KA90
Fri 06:49:34 PM 42.4833 -71.3333 304° West 65 75 1,700 522 Climbing KA90
Fri 06:50:40 PM 42.4833 -71.3667 270° West 88 101 2,100 143 Climbing KA90
Fri 06:51:40 PM 42.4833 -71.4000 270° West 101 116 2,000 -50 Descending KA90
Fri 06:52:40 PM 42.5167 -71.3833 20° North 101 116 2,000  Level KA90
Fri 06:53:34 PM 42.5500 -71.3833 360° North 113 130 2,000 100 Level KA90
Fri 06:54:40 PM 42.5667 -71.3500 56° Northeast 109 125 2,200 286 Climbing KA90
Fri 06:55:40 PM 42.5667 -71.3167 90° East 113 130 2,600 421 Climbing KA90
Fri 06:56:34 PM 42.5667 -71.2833 90° East 110 127 3,000 200 Climbing KA90
Fri 06:57:40 PM 42.5667 -71.2333 90° East 121 139 3,000  Level KA90
Fri 06:58:34 PM 42.5667 -71.1833 90° East 120 138 3,000 -53 Level KA90
Fri 06:59:34 PM 42.5500 -71.1333 114° Southeast 124 143 2,900 -300 Descending KA90
Fri 07:00:34 PM 42.5500 -71.0833 90° East 133 153 2,400 -391 Descending KA90
Fri 07:01:52 PM 42.5167 -71.0500 144° Southeast 131 151 2,000 -211 Descending KA90
Fri 07:02:28 PM 42.5000 -71.0500 180° South 121 139 2,000  Level KA90
Fri 07:03:28 PM 42.4667 -71.0500 180° South 120 138 2,000 -91 Level KA90
Fri 07:04:40 PM 42.4500 -71.1000 246° West 100 115 1,800 -100 Descending KA90
Fri 07:05:28 PM 42.4500 -71.1333 270° West 98 113 1,800  Level KA90
Fri 07:06:40 PM 42.4667 -71.1667 304° West 86 99 1,800 -286 Level KA90
Fri 07:07:34 PM 42.4667 -71.2000 270° West 96 110 1,200 -500 Descending KA90
Fri 07:08:40 PM 42.4667 -71.2333 270° West 96 110 800 -80 Descending KA90
Fri 07:10:04 PM 42.4667 -71.2833 270° West 59 68 1,000 385 Climbing KA90
Fri 07:11:16 PM 42.4833 -71.3167 304° West 78 90 1,800 714 Climbing KA90
Fri 07:12:10 PM 42.4833 -71.3333 270° West 86 99 2,500 632 Climbing KA90
Fri 07:13:10 PM 42.5167 -71.3333 360° North 81 93 3,000 238 Climbing KA90
Fri 07:14:16 PM 42.5167 -71.2833 90° East 120 138 3,000  Level KA90
Fri 07:15:16 PM 42.5167 -71.2500 90° East 124 143 3,000 -50 Level KA90
Fri 07:16:16 PM 42.5000 -71.2000 114° Southeast 125 144 2,900 -333 Descending KA90
Fri 07:17:22 PM 42.5000 -71.1500 90° East 130 150 2,300 -450 Descending KA90
Fri 07:18:16 PM 42.5000 -71.1000 90° East 130 150 2,000 -158 Descending KA90
Fri 07:19:16 PM 42.4833 -71.0667 124° Southeast 117 135 2,000  Level KA90
Fri 07:20:22 PM 42.4667 -71.0667 180° South 106 122 2,000 -95 Level KA90
Fri 07:21:22 PM 42.4500 -71.1000 236° Southwest 99 114 1,800 -100 Descending KA90
Fri 07:22:22 PM 42.4500 -71.1333 270° West 106 122 1,800  Level KA90
Fri 07:23:22 PM 42.4667 -71.1667 304° West 100 115 1,800 -300 Level KA90
Fri 07:24:22 PM 42.4667 -71.2167 270° West 105 121 1,200 -600 Descending KA90
Fri 07:25:22 PM 42.4667 -71.2500 270° West 112 129 600 -105 Descending KA90
Fri 07:26:16 PM 42.4667 -71.2833 270° West 68 78 1,000 625 Climbing KA90
Fri 07:27:46 PM 42.4833 -71.3167 304° West 91 105 2,100 667 Climbing KA90
Fri 07:28:40 PM 42.5000 -71.3167 360° North 83 96 2,600 500 Climbing KA90
Fri 07:29:34 PM 42.5167 -71.3167 360° North 101 116 3,000 182 Climbing KA90
Fri 07:30:52 PM 42.5500 -71.2667 48° Northeast 114 131 3,000  Level KA90
Fri 07:31:34 PM 42.5333 -71.2500 144° Southeast 121 139 3,000  Level KA90
Fri 07:32:34 PM 42.5333 -71.2000 90° East 119 137 3,000  Level KA90
Fri 07:33:34 PM 42.5333 -71.1500 90° East 119 137 3,000 -200 Level KA90
Fri 07:34:34 PM 42.5167 -71.1167 124° Southeast 120 138 2,600 -435 Descending KA90
Fri 07:35:52 PM 42.5167 -71.0500 90° East 126 145 2,000 -300 Descending KA90
Fri 07:36:34 PM 42.4833 -71.0333 160° South 124 143 2,000  Level KA90
Fri 07:37:34 PM 42.4667 -71.0333 180° South 131 151 2,000  Level KA90
Fri 07:38:40 PM 42.4500 -71.0667 236° Southwest 96 110 2,000 -43 Level KA90
Fri 07:39:52 PM 42.4500 -71.1167 270° West 97 112 1,900 -45 Descending KA90
Fri 07:40:52 PM 42.4667 -71.1500 304° West 91 105 1,900 -176 Level KA90
Fri 07:41:34 PM 42.4667 -71.1833 270° West 91 105 1,600 -474 Descending KA90
Fri 07:42:46 PM 42.4667 -71.2167 270° West 95 109 1,000 -455 Descending KA90
Fri 07:43:46 PM 42.4667 -71.2500 270° West 136 157 600 -400 Descending KA90

Login

Don't have an account? Register now (free) for customized features, flight alerts, and more!